Time;durP1;ratioP1;P1;durP2;ratioP2;P2;SDS_P1;SDS_P2;PMS_P1;PMS_P2;Temp;Humidity;BMP_temperature;BMP_pressure;BME280_temperature;BME280_humidity;BME280_pressure;Samples;Min_cycle;Max_cycle;Signal;HPM_P1;HPM_P2
2021/12/18 00:01:03;;;;;;;3.40;1.98;;;9.00;78.60;;;;;;4978688;28;20387;-75
2021/12/18 00:03:29;;;;;;;2.72;2.08;;;9.00;78.60;;;;;;4975657;28;20046;-75
2021/12/18 00:05:54;;;;;;;3.17;2.13;;;9.00;78.70;;;;;;4976524;28;20039;-76
2021/12/18 00:08:20;;;;;;;3.80;2.40;;;9.00;78.80;;;;;;4970957;28;20508;-76
2021/12/18 00:10:46;;;;;;;3.10;1.73;;;8.90;78.70;;;;;;4991928;28;20048;-76
2021/12/18 00:13:12;;;;;;;3.38;1.92;;;9.00;78.90;;;;;;4983659;28;20054;-76
2021/12/18 00:15:38;;;;;;;3.40;2.17;;;9.00;79.00;;;;;;4990512;28;20050;-73
2021/12/18 00:18:04;;;;;;;3.20;2.10;;;9.00;79.00;;;;;;4990362;28;20037;-73
2021/12/18 00:20:30;;;;;;;3.13;2.10;;;9.00;79.00;;;;;;4984661;28;20046;-73
2021/12/18 00:22:56;;;;;;;3.45;2.22;;;9.00;79.00;;;;;;4976508;28;20071;-73
2021/12/18 00:25:23;;;;;;;3.42;2.28;;;9.00;79.10;;;;;;4978149;28;20034;-74
2021/12/18 00:27:49;;;;;;;4.07;2.70;;;9.00;79.20;;;;;;4989035;28;20092;-73
2021/12/18 00:30:15;;;;;;;3.88;2.72;;;9.10;79.30;;;;;;4985071;28;20038;-76
2021/12/18 00:32:41;;;;;;;3.50;2.20;;;9.00;79.20;;;;;;4960360;28;20051;-75
2021/12/18 00:35:07;;;;;;;4.22;3.00;;;9.00;79.20;;;;;;4979244;28;20045;-75
2021/12/18 00:37:33;;;;;;;3.88;2.40;;;9.00;79.10;;;;;;4981895;28;20086;-76
2021/12/18 00:39:59;;;;;;;3.25;2.05;;;9.10;79.20;;;;;;4977856;28;20101;-76
2021/12/18 00:42:43;;;;;;;2.90;2.00;;;9.10;79.10;;;;;;4992697;28;20085;-76
2021/12/18 00:45:17;;;;;;;3.72;2.65;;;9.00;79.00;;;;;;4990674;28;20057;-76
2021/12/18 00:47:45;;;;;;;3.30;2.37;;;9.00;79.00;;;;;;4981543;28;20038;-76
2021/12/18 00:50:15;;;;;;;3.90;2.60;;;9.00;79.00;;;;;;4975867;28;20044;-75
2021/12/18 00:52:40;;;;;;;3.83;2.58;;;9.00;79.10;;;;;;4982917;28;20075;-76
2021/12/18 00:55:07;;;;;;;4.32;2.38;;;9.00;79.00;;;;;;4957513;28;20129;-72
2021/12/18 00:57:32;;;;;;;3.10;2.10;;;9.00;79.00;;;;;;4985310;28;20039;-74
2021/12/18 01:00:03;;;;;;;2.92;1.90;;;9.00;79.00;;;;;;4980425;28;20057;-74
2021/12/18 01:02:30;;;;;;;2.72;1.90;;;9.40;79.20;;;;;;4980208;28;20049;-76
2021/12/18 01:04:56;;;;;;;3.75;2.40;;;9.00;78.90;;;;;;4993478;28;20053;-76
2021/12/18 01:07:22;;;;;;;2.95;1.90;;;9.00;78.90;;;;;;4985511;28;20042;-75
2021/12/18 01:12:38;;;;;;;3.35;2.05;;;9.10;79.00;;;;;;4977938;28;20035;-73
2021/12/18 01:15:22;;;;;;;4.15;2.40;;;9.00;78.90;;;;;;4975330;28;20102;-74
2021/12/18 01:23:16;;;;;;;3.60;2.30;;;9.00;78.90;;;;;;4985579;28;20042;-73
2021/12/18 01:25:42;;;;;;;4.20;2.65;;;9.00;78.90;;;;;;4991085;28;20540;-74
2021/12/18 01:28:08;;;;;;;3.85;2.75;;;9.00;78.90;;;;;;4983198;28;20129;-73
2021/12/18 01:30:34;;;;;;;3.75;2.75;;;9.00;78.80;;;;;;4994554;28;20413;-73
2021/12/18 01:32:59;;;;;;;3.92;2.75;;;9.00;78.70;;;;;;4989626;28;20051;-76
2021/12/18 01:35:25;;;;;;;3.65;2.53;;;9.00;78.80;;;;;;4981276;28;20041;-76
2021/12/18 01:37:51;;;;;;;3.95;2.63;;;9.00;78.80;;;;;;4991742;28;20039;-75
2021/12/18 01:40:19;;;;;;;4.43;3.20;;;9.00;78.80;;;;;;4987583;28;20544;-76
2021/12/18 01:54:03;;;;;;;4.78;3.03;;;9.00;78.80;;;;;;4906611;29;20092;-76
2021/12/18 01:56:29;;;;;;;4.95;2.90;;;8.90;78.70;;;;;;4911972;28;20056;-76
2021/12/18 01:58:56;;;;;;;4.57;3.03;;;8.90;78.70;;;;;;4898401;29;20052;-76
2021/12/18 02:01:22;;;;;;;6.55;3.00;;;9.00;78.70;;;;;;4899380;29;20064;-76
2021/12/18 02:03:48;;;;;;;4.60;3.28;;;8.90;78.50;;;;;;4899345;29;20048;-76
2021/12/18 02:06:14;;;;;;;4.53;2.80;;;8.90;78.30;;;;;;4900630;29;20570;-76
2021/12/18 02:08:43;;;;;;;3.65;2.40;;;8.90;78.30;;;;;;4907796;29;20516;-76
2021/12/18 02:11:22;;;;;;;7.00;2.72;;;8.90;78.70;;;;;;4898965;29;20060;-76
2021/12/18 02:14:21;;;;;;;6.07;2.80;;;8.90;78.30;;;;;;4898053;29;20052;-76
2021/12/18 02:19:36;;;;;;;3.42;2.13;;;8.80;78.00;;;;;;4902954;29;20492;-76
2021/12/18 02:22:03;;;;;;;4.18;2.67;;;8.80;78.00;;;;;;4915338;29;20416;-74
2021/12/18 02:24:31;;;;;;;3.22;1.92;;;8.80;78.10;;;;;;4919639;29;20048;-73
2021/12/18 02:26:58;;;;;;;3.63;2.22;;;8.80;78.20;;;;;;4958869;28;20058;-73
2021/12/18 02:29:24;;;;;;;3.30;2.22;;;8.80;78.20;;;;;;4955261;29;20051;-74
2021/12/18 02:31:50;;;;;;;3.05;2.03;;;8.80;78.30;;;;;;4973824;28;20512;-74
2021/12/18 02:34:22;;;;;;;4.40;2.35;;;8.80;78.30;;;;;;4980001;28;20051;-74
2021/12/18 02:36:49;;;;;;;8.32;2.50;;;8.70;78.20;;;;;;4991023;28;20046;-76
2021/12/18 02:39:38;;;;;;;2.88;1.90;;;8.80;78.20;;;;;;4986607;28;20046;-73
2021/12/18 02:42:19;;;;;;;3.47;2.10;;;8.80;78.20;;;;;;4986808;28;20053;-74
2021/12/18 02:44:45;;;;;;;3.50;2.10;;;8.80;78.20;;;;;;4982314;28;20050;-74
2021/12/18 02:47:12;;;;;;;2.88;2.08;;;8.80;78.30;;;;;;4981500;28;20078;-74
2021/12/18 02:49:50;;;;;;;3.63;2.25;;;8.80;78.30;;;;;;4995401;28;20093;-74
2021/12/18 02:52:18;;;;;;;3.20;2.15;;;8.80;78.30;;;;;;4989161;28;20041;-74
2021/12/18 02:54:44;;;;;;;3.75;2.10;;;8.80;78.30;;;;;;4980003;28;20177;-74
2021/12/18 02:57:10;;;;;;;3.35;2.20;;;8.80;78.40;;;;;;4992169;28;20093;-74
2021/12/18 02:59:47;;;;;;;2.42;1.75;;;8.80;78.30;;;;;;4989330;28;20084;-75
2021/12/18 03:02:14;;;;;;;2.67;1.67;;;8.70;78.20;;;;;;4992541;28;20042;-74
2021/12/18 03:04:42;;;;;;;2.47;1.65;;;8.80;78.30;;;;;;4977140;28;20059;-74
2021/12/18 03:07:10;;;;;;;2.90;1.92;;;8.80;78.30;;;;;;4979646;28;20131;-74
2021/12/18 03:25:22;;;;;;;2.85;1.48;;;8.70;78.10;;;;;;4990114;28;20057;-74
2021/12/18 03:27:48;;;;;;;2.92;1.50;;;8.70;78.10;;;;;;4986542;28;20071;-76
2021/12/18 03:30:14;;;;;;;2.17;1.40;;;8.70;78.00;;;;;;4975844;28;20039;-74
2021/12/18 03:32:41;;;;;;;2.63;1.50;;;8.70;78.00;;;;;;4975733;28;20485;-75
2021/12/18 03:35:07;;;;;;;1.98;1.10;;;8.70;78.00;;;;;;4993681;28;20158;-74
2021/12/18 03:37:36;;;;;;;2.20;1.20;;;8.70;77.80;;;;;;4991653;28;20038;-74
2021/12/18 03:40:05;;;;;;;2.92;1.40;;;8.60;77.70;;;;;;4985043;28;20434;-73
2021/12/18 03:42:30;;;;;;;2.78;1.10;;;8.60;77.80;;;;;;4994958;28;20053;-74
2021/12/18 03:44:56;;;;;;;2.33;1.30;;;8.60;77.80;;;;;;4987839;28;20042;-74
2021/12/18 03:47:21;;;;;;;1.63;0.82;;;8.60;77.80;;;;;;4976115;28;20126;-74
2021/12/18 03:49:47;;;;;;;2.45;1.20;;;8.60;77.80;;;;;;4986672;28;20389;-74
2021/12/18 03:52:13;;;;;;;2.35;1.00;;;8.60;77.80;;;;;;4993653;28;20057;-73
2021/12/18 03:54:38;;;;;;;2.70;1.30;;;8.60;77.90;;;;;;4979015;28;20398;-73
2021/12/18 03:57:04;;;;;;;2.17;1.15;;;8.60;77.90;;;;;;4993313;28;20073;-76
2021/12/18 03:59:30;;;;;;;2.67;1.33;;;8.60;77.90;;;;;;4989572;28;20398;-77
2021/12/18 04:01:56;;;;;;;2.45;1.10;;;8.60;77.90;;;;;;4959230;28;20085;-76
2021/12/18 04:04:22;;;;;;;2.15;0.95;;;8.60;77.90;;;;;;4983362;28;20133;-76
2021/12/18 04:06:48;;;;;;;2.40;1.25;;;8.50;77.80;;;;;;4975044;28;20073;-76
2021/12/18 04:09:14;;;;;;;2.55;1.30;;;8.50;77.70;;;;;;4988671;28;20109;-76
2021/12/18 04:11:40;;;;;;;3.28;1.08;;;8.50;77.70;;;;;;4987110;28;20058;-76
2021/12/18 04:14:06;;;;;;;2.40;1.00;;;8.50;77.70;;;;;;4981437;28;20050;-74
2021/12/18 04:16:33;;;;;;;2.03;0.93;;;8.50;77.70;;;;;;4990224;28;20085;-74
2021/12/18 04:19:01;;;;;;;1.30;0.60;;;8.50;77.60;;;;;;4976338;28;20165;-76
2021/12/18 04:21:28;;;;;;;1.95;1.05;;;8.50;77.60;;;;;;4988993;28;20513;-76
2021/12/18 04:23:53;;;;;;;1.98;0.85;;;8.50;77.70;;;;;;4984157;28;20050;-76
2021/12/18 04:26:19;;;;;;;2.00;0.90;;;8.50;77.60;;;;;;4959666;28;20410;-76
2021/12/18 04:28:44;;;;;;;1.50;0.80;;;8.50;77.60;;;;;;4976897;28;20164;-73
2021/12/18 04:31:10;;;;;;;2.05;1.10;;;8.40;77.50;;;;;;4975207;28;20042;-76
2021/12/18 04:33:36;;;;;;;2.13;1.13;;;8.40;77.60;;;;;;4975314;28;20034;-76
2021/12/18 04:36:02;;;;;;;1.90;1.20;;;8.40;77.60;;;;;;4982902;28;20088;-75
2021/12/18 04:38:27;;;;;;;3.53;1.75;;;8.40;77.50;;;;;;4982809;28;20050;-75
2021/12/18 04:40:53;;;;;;;2.80;1.77;;;8.40;77.40;;;;;;4984874;28;20419;-74
2021/12/18 04:43:19;;;;;;;3.72;1.88;;;8.40;77.20;;;;;;4975818;28;20057;-75
2021/12/18 04:45:44;;;;;;;3.60;1.90;;;8.40;77.10;;;;;;4985359;28;20364;-74
2021/12/18 04:48:10;;;;;;;2.42;1.45;;;8.30;77.00;;;;;;4978705;28;20038;-75
2021/12/18 04:50:36;;;;;;;2.95;1.60;;;8.30;77.10;;;;;;4971805;28;20138;-75
2021/12/18 04:53:01;;;;;;;3.33;1.83;;;8.20;77.20;;;;;;4974725;28;20434;-76
2021/12/18 04:55:27;;;;;;;3.90;2.20;;;8.20;77.50;;;;;;4968535;28;20478;-75
2021/12/18 04:57:54;;;;;;;4.13;2.40;;;8.20;77.70;;;;;;4976015;28;20039;-75
2021/12/18 05:00:22;;;;;;;2.88;1.77;;;8.20;77.80;;;;;;4976624;28;20046;-75
2021/12/18 05:02:50;;;;;;;4.40;2.65;;;8.20;78.00;;;;;;4988341;28;20096;-75
2021/12/18 05:05:15;;;;;;;3.03;1.65;;;8.20;77.90;;;;;;4985735;28;20042;-74
2021/12/18 05:07:42;;;;;;;4.30;2.03;;;8.20;78.00;;;;;;4992276;28;20035;-75
2021/12/18 05:10:10;;;;;;;3.00;1.80;;;8.20;78.10;;;;;;4996124;28;20049;-75
2021/12/18 05:12:37;;;;;;;4.07;2.28;;;8.20;78.10;;;;;;4995149;28;20054;-75
2021/12/18 05:15:03;;;;;;;3.60;2.03;;;8.30;78.20;;;;;;4988040;28;20053;-75
2021/12/18 05:17:29;;;;;;;5.15;2.45;;;8.30;78.20;;;;;;4980315;28;20126;-75
2021/12/18 05:19:54;;;;;;;3.53;1.85;;;8.30;78.10;;;;;;4981828;28;20134;-75
2021/12/18 05:22:20;;;;;;;4.07;1.95;;;8.30;78.10;;;;;;4984817;28;20078;-75
2021/12/18 05:24:46;;;;;;;4.38;2.13;;;8.30;78.20;;;;;;4968221;28;20069;-75
2021/12/18 05:27:11;;;;;;;3.13;1.77;;;8.30;78.20;;;;;;4981566;28;20454;-75
2021/12/18 05:29:37;;;;;;;4.72;2.30;;;8.30;78.20;;;;;;4979838;28;20067;-74
2021/12/18 05:32:03;;;;;;;3.90;1.95;;;8.30;78.30;;;;;;4995241;28;20097;-74
2021/12/18 05:34:36;;;;;;;3.67;1.73;;;8.30;78.20;;;;;;4996944;28;20445;-74
2021/12/18 05:37:15;;;;;;;6.95;2.78;;;8.30;78.20;;;;;;4972396;28;20487;-74
2021/12/18 05:39:41;;;;;;;5.75;2.30;;;8.30;78.30;;;;;;4980878;28;20042;-74
2021/12/18 05:42:07;;;;;;;3.78;1.70;;;8.30;78.30;;;;;;4989426;28;20084;-74
2021/12/18 05:44:33;;;;;;;3.17;1.80;;;8.30;78.20;;;;;;4990858;28;20074;-74
2021/12/18 05:46:58;;;;;;;5.63;2.25;;;8.30;78.20;;;;;;4979906;28;20070;-74
2021/12/18 05:49:24;;;;;;;3.85;2.10;;;8.30;78.30;;;;;;4986119;28;20057;-75
2021/12/18 05:51:50;;;;;;;4.28;2.10;;;8.30;78.40;;;;;;4981165;28;20038;-74
2021/12/18 05:54:16;;;;;;;4.03;1.65;;;8.30;78.40;;;;;;4996521;28;20092;-74
2021/12/18 05:56:42;;;;;;;5.72;1.90;;;8.30;78.30;;;;;;4991799;28;20127;-74
2021/12/18 05:59:08;;;;;;;4.03;1.60;;;8.30;78.40;;;;;;4989843;28;20043;-74
2021/12/18 06:01:34;;;;;;;4.72;1.77;;;8.40;78.50;;;;;;4989642;28;20046;-74
2021/12/18 06:04:00;;;;;;;3.85;1.77;;;8.30;78.50;;;;;;4982774;28;20043;-74
2021/12/18 06:06:26;;;;;;;4.05;1.70;;;8.40;78.60;;;;;;4993487;28;20055;-74
2021/12/18 06:08:51;;;;;;;6.30;2.30;;;8.30;78.60;;;;;;4992965;28;20050;-74
2021/12/18 06:11:20;;;;;;;4.63;2.45;;;8.40;78.60;;;;;;4991628;28;20042;-74
2021/12/18 06:13:49;;;;;;;5.82;2.47;;;8.40;78.70;;;;;;4997047;28;20540;-74
2021/12/18 06:16:16;;;;;;;5.00;2.00;;;8.40;78.70;;;;;;4979611;28;20057;-75
2021/12/18 06:18:46;;;;;;;4.90;1.88;;;8.40;78.70;;;;;;4979517;28;20071;-74
2021/12/18 06:21:15;;;;;;;4.72;2.20;;;8.40;78.70;;;;;;4966322;28;20490;-75
2021/12/18 06:23:42;;;;;;;4.50;2.33;;;8.40;78.70;;;;;;4990436;28;20050;-74
2021/12/18 06:26:08;;;;;;;5.00;2.08;;;8.40;78.70;;;;;;4988605;28;20376;-74
2021/12/18 06:28:34;;;;;;;5.32;2.50;;;8.40;78.70;;;;;;4988833;28;20097;-75
2021/12/18 06:31:01;;;;;;;4.38;2.10;;;8.40;78.70;;;;;;4984748;28;20137;-74
2021/12/18 06:33:27;;;;;;;5.68;2.30;;;8.40;78.70;;;;;;4978000;28;20039;-75
2021/12/18 06:35:53;;;;;;;6.78;2.80;;;8.40;78.70;;;;;;4979910;28;20042;-74
2021/12/18 06:38:18;;;;;;;7.72;3.65;;;8.50;78.70;;;;;;4977864;28;20046;-74
2021/12/18 06:40:44;;;;;;;5.40;2.72;;;8.50;78.60;;;;;;4977033;28;20140;-74
2021/12/18 06:43:10;;;;;;;4.80;2.30;;;8.50;78.50;;;;;;4983758;28;20035;-74
2021/12/18 06:45:35;;;;;;;6.03;2.55;;;8.50;78.50;;;;;;4979760;28;20494;-75
2021/12/18 06:48:01;;;;;;;6.80;3.45;;;8.40;78.50;;;;;;4981656;28;20042;-75
2021/12/18 06:50:27;;;;;;;6.78;3.40;;;8.50;78.60;;;;;;4995457;28;20049;-74
2021/12/18 06:52:53;;;;;;;7.57;3.60;;;8.50;78.60;;;;;;4990567;28;20078;-75
2021/12/18 06:55:19;;;;;;;7.35;3.30;;;8.50;78.70;;;;;;4977443;28;20074;-75
2021/12/18 06:57:44;;;;;;;7.85;4.18;;;8.50;78.70;;;;;;4968465;28;20050;-74
2021/12/18 07:00:12;;;;;;;6.88;3.47;;;8.50;78.70;;;;;;4977309;28;20126;-74
2021/12/18 07:02:38;;;;;;;5.93;3.10;;;8.50;78.70;;;;;;4989691;28;20406;-74
2021/12/18 07:05:05;;;;;;;6.50;3.38;;;8.50;78.70;;;;;;4977348;28;20057;-74
2021/12/18 07:07:30;;;;;;;7.10;3.72;;;8.50;78.70;;;;;;4991871;28;20053;-74
2021/12/18 07:09:56;;;;;;;7.15;3.20;;;8.50;78.70;;;;;;4992073;28;20125;-74
2021/12/18 07:12:22;;;;;;;7.50;3.80;;;8.50;78.70;;;;;;4977410;28;20074;-74
2021/12/18 07:14:47;;;;;;;6.97;3.42;;;8.50;78.70;;;;;;4988538;28;20058;-74
2021/12/18 07:17:14;;;;;;;8.20;3.70;;;8.50;78.70;;;;;;4978854;28;20106;-74
2021/12/18 07:19:40;;;;;;;9.10;3.88;;;8.50;78.70;;;;;;4989320;28;20502;-75
2021/12/18 07:22:06;;;;;;;7.68;3.20;;;8.50;78.80;;;;;;4981187;28;20042;-75
2021/12/18 07:24:32;;;;;;;6.68;3.45;;;8.50;78.70;;;;;;4976921;28;20482;-75
2021/12/18 07:26:57;;;;;;;6.65;3.60;;;8.50;78.70;;;;;;4988147;28;20093;-75
2021/12/18 07:29:24;;;;;;;6.28;3.33;;;8.50;78.70;;;;;;4991232;28;20042;-75
2021/12/18 07:31:51;;;;;;;6.43;3.35;;;8.50;78.70;;;;;;4989713;28;20042;-75
2021/12/18 07:34:17;;;;;;;7.63;3.45;;;8.50;78.70;;;;;;4984433;28;20045;-75
2021/12/18 07:36:43;;;;;;;6.03;2.80;;;8.50;78.70;;;;;;4986132;28;20035;-75
2021/12/18 07:39:09;;;;;;;6.28;2.78;;;8.50;78.70;;;;;;4980810;28;20046;-75
2021/12/18 07:41:35;;;;;;;5.93;2.85;;;8.50;78.70;;;;;;4974814;28;20363;-75
2021/12/18 07:44:01;;;;;;;6.13;3.28;;;8.50;78.70;;;;;;4990201;28;20049;-75
2021/12/18 07:46:28;;;;;;;7.20;3.25;;;8.50;78.70;;;;;;4981452;28;20034;-75
2021/12/18 07:48:53;;;;;;;5.88;2.78;;;8.50;78.70;;;;;;4984679;28;20046;-74
2021/12/18 07:51:19;;;;;;;7.50;3.65;;;8.50;78.70;;;;;;4983703;28;20088;-75
2021/12/18 07:53:45;;;;;;;6.35;2.65;;;8.50;78.70;;;;;;4975973;28;20129;-75
2021/12/18 07:56:10;;;;;;;5.63;2.92;;;8.50;78.70;;;;;;4976804;28;20034;-75
2021/12/18 07:58:37;;;;;;;6.30;2.97;;;8.60;78.80;;;;;;4989264;28;20092;-75
2021/12/18 08:01:03;;;;;;;6.05;3.30;;;8.50;78.70;;;;;;4987310;28;20053;-75
2021/12/18 08:03:29;;;;;;;6.65;3.17;;;8.60;78.80;;;;;;4982592;28;20090;-75
2021/12/18 08:05:54;;;;;;;4.88;2.63;;;8.60;78.80;;;;;;4984257;28;20034;-75
2021/12/18 08:08:20;;;;;;;6.75;3.45;;;8.60;78.80;;;;;;4976499;28;20051;-75
2021/12/18 08:10:47;;;;;;;5.95;2.92;;;8.60;78.80;;;;;;4980386;28;20066;-74
2021/12/18 08:13:12;;;;;;;5.70;3.03;;;8.60;78.80;;;;;;4969399;28;20504;-75
2021/12/18 08:15:38;;;;;;;6.63;3.22;;;8.60;78.80;;;;;;4977435;28;20053;-75
2021/12/18 08:18:06;;;;;;;7.85;3.35;;;8.60;78.80;;;;;;4957803;28;20082;-75
2021/12/18 08:20:35;;;;;;;7.15;3.08;;;8.60;78.80;;;;;;4986371;28;20045;-75
2021/12/18 08:23:01;;;;;;;6.10;2.83;;;8.60;78.80;;;;;;4990616;28;20042;-75
2021/12/18 08:25:28;;;;;;;5.90;2.88;;;8.60;78.80;;;;;;4990074;28;20034;-75
2021/12/18 08:28:01;;;;;;;7.85;3.53;;;8.60;78.80;;;;;;4986495;28;20126;-75
2021/12/18 08:30:28;;;;;;;5.82;3.00;;;8.60;78.80;;;;;;4983554;28;20479;-75
2021/12/18 08:32:54;;;;;;;6.20;2.70;;;8.60;78.80;;;;;;4974806;28;20478;-75
2021/12/18 08:35:19;;;;;;;6.88;3.20;;;8.60;78.80;;;;;;4982056;28;20173;-74
2021/12/18 08:37:46;;;;;;;7.70;3.38;;;8.60;78.80;;;;;;4976875;28;20134;-75
2021/12/18 08:40:12;;;;;;;6.90;3.10;;;8.60;78.80;;;;;;4968182;28;20486;-75
2021/12/18 08:42:38;;;;;;;7.25;3.63;;;8.60;78.80;;;;;;4979762;28;20074;-74
2021/12/18 08:45:04;;;;;;;7.45;3.53;;;8.60;78.80;;;;;;4979642;28;20034;-75
2021/12/18 08:47:33;;;;;;;8.00;3.72;;;8.60;78.80;;;;;;4973156;28;20043;-74
2021/12/18 08:50:00;;;;;;;7.97;4.00;;;8.60;78.90;;;;;;4985952;28;20413;-74
2021/12/18 08:52:25;;;;;;;7.90;3.80;;;8.60;78.90;;;;;;4980335;28;20051;-75
2021/12/18 08:54:51;;;;;;;6.55;3.20;;;8.60;78.90;;;;;;4994855;28;20035;-75
2021/12/18 08:57:18;;;;;;;8.35;3.50;;;8.60;78.90;;;;;;4980126;28;20078;-75
2021/12/18 08:59:43;;;;;;;7.20;3.78;;;8.60;79.00;;;;;;4993949;28;20053;-74
2021/12/18 09:02:10;;;;;;;8.55;3.50;;;8.60;79.00;;;;;;4979745;28;20058;-75
2021/12/18 09:04:36;;;;;;;6.40;3.83;;;8.70;79.10;;;;;;4978601;28;20030;-75
2021/12/18 09:07:04;;;;;;;7.60;3.88;;;8.70;79.20;;;;;;4973184;28;20129;-75
2021/12/18 09:09:30;;;;;;;7.75;4.05;;;8.70;79.20;;;;;;4990539;28;20433;-75
2021/12/18 09:11:55;;;;;;;8.13;3.90;;;8.70;79.60;;;;;;4981580;28;20053;-75
2021/12/18 09:14:21;;;;;;;7.90;4.45;;;8.70;79.20;;;;;;4960517;28;20069;-75
2021/12/18 09:16:47;;;;;;;6.85;3.67;;;8.70;79.20;;;;;;4988938;28;20047;-75
2021/12/18 09:19:13;;;;;;;7.50;4.10;;;8.70;79.20;;;;;;4985398;28;20074;-75
2021/12/18 09:21:39;;;;;;;7.47;3.88;;;8.70;79.30;;;;;;4993461;28;20100;-75
2021/12/18 09:24:05;;;;;;;7.60;3.53;;;8.70;79.30;;;;;;4985188;28;20045;-75
2021/12/18 09:26:31;;;;;;;6.47;3.53;;;8.70;79.30;;;;;;4979869;28;20093;-76
2021/12/18 09:28:56;;;;;;;8.10;3.90;;;8.70;79.40;;;;;;4987425;28;20473;-75
2021/12/18 09:31:24;;;;;;;7.65;4.20;;;8.80;79.50;;;;;;4988467;28;20044;-76
2021/12/18 09:33:50;;;;;;;9.88;4.68;;;8.80;79.50;;;;;;4979721;28;20050;-75
2021/12/18 09:36:16;;;;;;;6.68;3.67;;;8.80;79.50;;;;;;4983054;28;20192;-75
2021/12/18 09:38:42;;;;;;;10.75;4.50;;;8.80;79.50;;;;;;4985865;28;20390;-76
2021/12/18 09:41:08;;;;;;;8.40;4.40;;;8.80;79.50;;;;;;4991795;28;20038;-76
2021/12/18 09:43:35;;;;;;;9.32;4.57;;;8.90;79.60;;;;;;4982094;28;20082;-76
2021/12/18 09:46:08;;;;;;;8.32;4.43;;;8.90;79.70;;;;;;4984577;28;20047;-75
2021/12/18 09:48:38;;;;;;;9.75;5.32;;;8.90;79.80;;;;;;4986317;28;20081;-76
2021/12/18 09:51:08;;;;;;;11.35;5.00;;;8.90;79.80;;;;;;4971851;28;20544;-75
2021/12/18 09:53:35;;;;;;;7.68;4.07;;;8.90;79.80;;;;;;4996126;28;20050;-76
2021/12/18 09:56:03;;;;;;;7.55;4.05;;;8.90;79.80;;;;;;4985609;28;20097;-75
2021/12/18 09:58:28;;;;;;;10.63;4.97;;;8.90;79.90;;;;;;4985415;28;20046;-81
2021/12/18 10:00:54;;;;;;;8.30;4.10;;;8.90;80.00;;;;;;4990277;28;20094;-82
2021/12/18 10:03:20;;;;;;;10.43;4.78;;;8.90;80.00;;;;;;4996169;28;20046;-81
2021/12/18 10:05:46;;;;;;;12.27;5.47;;;8.90;80.00;;;;;;4985317;28;20497;-82
2021/12/18 10:08:18;;;;;;;8.68;4.60;;;9.00;80.20;;;;;;4990592;28;20046;-81
2021/12/18 10:11:06;;;;;;;8.38;4.57;;;9.00;80.30;;;;;;4982979;28;20065;-82
2021/12/18 10:14:04;;;;;;;11.43;5.25;;;9.00;80.20;;;;;;4991523;28;20422;-83
2021/12/18 10:16:31;;;;;;;8.95;5.22;;;9.00;80.30;;;;;;4983630;28;20050;-84
2021/12/18 10:18:58;;;;;;;10.15;4.93;;;9.00;80.30;;;;;;4978130;28;20042;-84
2021/12/18 10:21:27;;;;;;;10.38;5.85;;;9.00;80.30;;;;;;4986628;28;20109;-83
2021/12/18 10:23:54;;;;;;;9.25;5.25;;;9.00;80.30;;;;;;4996772;28;20125;-85
2021/12/18 10:26:30;;;;;;;11.63;5.68;;;9.10;80.40;;;;;;4986928;28;20088;-84
2021/12/18 10:28:56;;;;;;;8.90;5.13;;;9.10;80.50;;;;;;4961187;28;20051;-83
2021/12/18 10:31:39;;;;;;;11.68;5.47;;;9.00;80.40;;;;;;4978633;28;20050;-83
2021/12/18 10:34:21;;;;;;;9.50;5.28;;;9.10;80.60;;;;;;4984202;28;20395;-83
2021/12/18 10:37:09;;;;;;;9.10;4.97;;;9.10;80.60;;;;;;4985297;28;20069;-82
2021/12/18 10:39:41;;;;;;;10.88;4.70;;;9.10;80.60;;;;;;4984929;28;20054;-81
2021/12/18 10:42:33;;;;;;;10.98;5.00;;;9.10;80.60;;;;;;4987555;28;20074;-82
2021/12/18 10:45:08;;;;;;;8.70;5.18;;;9.10;80.60;;;;;;4972078;28;20046;-81
2021/12/18 10:47:58;;;;;;;11.05;5.10;;;9.10;80.70;;;;;;4961428;28;20058;-80
2021/12/18 10:50:45;;;;;;;9.82;4.80;;;9.20;80.80;;;;;;4987833;28;20050;-82
2021/12/18 10:53:21;;;;;;;8.27;5.45;;;9.10;80.80;;;;;;4999128;28;20042;-82
2021/12/18 10:55:49;;;;;;;10.23;5.60;;;9.20;80.90;;;;;;5000448;28;20069;-81
2021/12/18 10:58:25;;;;;;;9.75;5.07;;;9.20;80.90;;;;;;4998442;28;20058;-81
2021/12/18 11:00:57;;;;;;;9.15;5.38;;;9.20;81.00;;;;;;4977802;28;20445;-81
2021/12/18 11:03:23;;;;;;;10.00;5.20;;;9.20;81.00;;;;;;4990035;28;20042;-81
2021/12/18 11:06:10;;;;;;;9.93;5.05;;;9.20;80.90;;;;;;4964141;28;20379;-82
2021/12/18 11:09:07;;;;;;;11.10;5.25;;;9.30;81.10;;;;;;4971738;28;20367;-81
2021/12/18 11:14:21;;;;;;;10.40;4.80;;;9.30;81.10;;;;;;4984373;28;20078;-87
2021/12/18 11:16:53;;;;;;;12.38;4.57;;;9.30;81.10;;;;;;4988650;28;20060;-84
2021/12/18 11:19:22;;;;;;;10.45;3.75;;;9.40;81.10;;;;;;4975738;28;20173;-84
2021/12/18 11:21:49;;;;;;;7.40;3.20;;;9.30;81.10;;;;;;4967891;28;20059;-84
2021/12/18 11:24:16;;;;;;;5.18;3.45;;;9.40;81.10;;;;;;4975247;28;20478;-84
2021/12/18 11:27:06;;;;;;;6.40;3.45;;;9.30;81.00;;;;;;4984627;28;20071;-83
2021/12/18 11:29:40;;;;;;;9.48;3.30;;;9.40;81.10;;;;;;4976157;28;20394;-84
2021/12/18 11:32:11;;;;;;;5.50;2.80;;;9.30;81.00;;;;;;4993233;28;20050;-85
2021/12/18 11:34:38;;;;;;;4.47;2.15;;;9.40;81.10;;;;;;4977139;28;20047;-84
2021/12/18 11:37:09;;;;;;;4.72;2.10;;;9.30;81.00;;;;;;4959933;28;20085;-84
2021/12/18 11:39:37;;;;;;;5.10;2.33;;;9.30;81.00;;;;;;4990416;28;20093;-84
2021/12/18 11:42:03;;;;;;;4.35;1.92;;;9.40;81.00;;;;;;4985519;28;20047;-84
2021/12/18 11:44:40;;;;;;;4.45;1.88;;;9.30;80.90;;;;;;4991008;28;20042;-84
2021/12/18 11:47:24;;;;;;;3.60;1.90;;;9.30;80.90;;;;;;4993056;28;20490;-82
2021/12/18 11:49:52;;;;;;;3.85;1.92;;;9.40;80.70;;;;;;4986553;28;20062;-82
2021/12/18 11:52:18;;;;;;;2.80;1.65;;;9.40;80.70;;;;;;4989932;28;20093;-82
2021/12/18 11:54:56;;;;;;;4.25;2.72;;;9.30;80.50;;;;;;4993510;28;20490;-82
2021/12/18 11:57:48;;;;;;;5.43;2.88;;;9.30;80.60;;;;;;4993549;28;20089;-82
2021/12/18 12:00:17;;;;;;;4.15;2.58;;;9.40;80.80;;;;;;4973461;28;20504;-81
2021/12/18 12:02:46;;;;;;;5.70;2.25;;;9.50;80.90;;;;;;4992755;28;20492;-82
2021/12/18 12:05:13;;;;;;;5.32;2.30;;;9.40;80.90;;;;;;4972690;28;20377;-81
2021/12/18 12:07:39;;;;;;;7.55;2.80;;;9.50;80.90;;;;;;4993858;28;20042;-82
2021/12/18 12:12:56;;;;;;;6.80;3.00;;;9.40;80.80;;;;;;4979626;28;20135;-76
2021/12/18 12:15:25;;;;;;;6.35;2.42;;;9.40;80.70;;;;;;4986978;28;20565;-76
2021/12/18 12:17:55;;;;;;;3.97;2.25;;;9.50;80.70;;;;;;4981825;28;20553;-75
2021/12/18 12:20:43;;;;;;;4.32;2.30;;;9.50;80.80;;;;;;4978924;28;20443;-76
2021/12/18 12:23:10;;;;;;;6.95;2.80;;;9.50;80.70;;;;;;4974891;28;20102;-77
2021/12/18 12:25:37;;;;;;;4.15;2.35;;;9.50;80.70;;;;;;4966849;28;20061;-76
2021/12/18 12:28:14;;;;;;;7.07;3.47;;;9.50;80.70;;;;;;4974913;28;20051;-76
2021/12/18 12:30:52;;;;;;;5.72;2.67;;;9.50;80.70;;;;;;4992495;28;20049;-76
2021/12/18 12:33:29;;;;;;;7.32;3.03;;;9.50;80.60;;;;;;4992031;28;20050;-76
2021/12/18 12:36:22;;;;;;;4.78;2.83;;;9.60;80.70;;;;;;4964241;28;20054;-76
2021/12/18 12:38:55;;;;;;;10.70;7.22;;;9.60;80.60;;;;;;4889456;29;20060;-76
2021/12/18 12:41:41;;;;;;;4.80;3.20;;;9.60;80.60;;;;;;4914478;29;20064;-76
2021/12/18 12:44:26;;;;;;;7.15;3.10;;;9.60;80.60;;;;;;4909285;29;20079;-76
2021/12/18 12:47:23;;;;;;;6.32;3.60;;;9.60;80.60;;;;;;4914610;29;20080;-76
2021/12/18 12:49:54;;;;;;;7.20;3.75;;;9.60;80.40;;;;;;4911959;29;20060;-76
2021/12/18 12:52:22;;;;;;;7.03;3.95;;;9.60;80.40;;;;;;4897075;29;20049;-76
2021/12/18 12:55:05;;;;;;;7.07;3.70;;;9.60;80.30;;;;;;4897347;29;20060;-76
2021/12/18 12:57:40;;;;;;;9.45;4.45;;;9.60;80.20;;;;;;4889811;29;20346;-76
2021/12/18 13:00:05;;;;;;;9.68;4.18;;;9.70;80.40;;;;;;4909554;29;20044;-77
2021/12/18 13:02:34;;;;;;;8.57;4.13;;;9.70;80.30;;;;;;4897747;29;20119;-76
2021/12/18 13:05:11;;;;;;;10.68;3.45;;;9.70;80.20;;;;;;4913096;29;20124;-76
2021/12/18 13:07:55;;;;;;;5.68;3.80;;;9.70;80.20;;;;;;4913448;29;20064;-76
2021/12/18 13:10:24;;;;;;;7.57;3.85;;;9.70;80.10;;;;;;4903619;29;20136;-76
2021/12/18 13:12:57;;;;;;;7.90;3.60;;;9.70;80.10;;;;;;4909602;29;20076;-76
2021/12/18 13:15:23;;;;;;;9.48;3.50;;;9.70;80.10;;;;;;4935020;28;20367;-76
2021/12/18 13:18:04;;;;;;;5.50;2.80;;;9.70;80.00;;;;;;4990961;28;20406;-76
2021/12/18 13:20:44;;;;;;;7.25;2.95;;;9.70;80.00;;;;;;4976794;28;20046;-76
2021/12/18 13:23:17;;;;;;;6.75;2.90;;;9.80;80.10;;;;;;4978167;28;20080;-76
2021/12/18 13:25:54;;;;;;;5.38;3.22;;;9.80;80.00;;;;;;4994588;28;20042;-77
2021/12/18 13:28:22;;;;;;;8.65;3.30;;;9.80;80.00;;;;;;4993247;28;20053;-76
2021/12/18 13:30:51;;;;;;;8.85;3.83;;;9.80;79.90;;;;;;4985822;28;20047;-76
2021/12/18 13:33:25;;;;;;;7.60;4.30;;;9.80;79.80;;;;;;4978691;28;20057;-76
2021/12/18 13:35:57;;;;;;;7.55;3.53;;;9.80;79.70;;;;;;4995457;28;20394;-76
2021/12/18 13:38:23;;;;;;;7.25;2.80;;;9.80;79.50;;;;;;4997576;28;20057;-76
2021/12/18 13:40:50;;;;;;;9.70;3.58;;;9.80;79.50;;;;;;4989611;28;20069;-76
2021/12/18 13:43:18;;;;;;;6.85;3.15;;;9.80;79.50;;;;;;4974199;28;20498;-76
2021/12/18 13:46:09;;;;;;;9.48;2.58;;;9.80;79.30;;;;;;4981971;28;20069;-76
2021/12/18 13:48:44;;;;;;;5.70;2.50;;;9.80;78.80;;;;;;4980930;28;20070;-76